x

Bodega Bay - 48nm Nnw Of San Francisco, Ca (46013) Weather Station

9:20am - Wed 24th May 2017 All times are PDT. -7 hours from GMT.

  • Wind
    9mph, 11mph gusts
  • Sea Temp 50°f
  • Air Temp 51°f
  • Sea Pressure 1011.5mb
  • Bodega Bay - 48nm Nnw Of San Francisco, Ca
  • Bodega Bay - 48nm Nnw Of San Francisco, Ca

More Historic Weather Station data

Upgrade to MSW Pro to gain access to the past 30 days of data for over 8000 Wavebouys and Weather Stations around the globe.

Join Pro

Comparision Forecast

View Surf forecast
   
Wed 05/24 9:20am  -   -   -  9 11 mph 1011.5mb 50f 51f
9:10am  -   -   -  9 11 mph 1011.4mb 50f 51f
9:00am  -   -   -  9 13 mph 1011.4mb 50f 51f
8:50am 5ft 11s 9s 9 11 mph 1011.4mb 50f 51f
8:40am 5ft  -  9s 9 11 mph 1011.4mb 50f 51f
8:30am  -   -   -  9 11 mph 1011.4mb 50f 51f
8:20am  -   -   -  4 7 mph 1011.4mb - 50f
8:10am  -   -   -  4 7 mph 1011.4mb 50f 50f
8:00am  -   -   -  4 7 mph 1011.4mb 50f 50f
7:50am 5ft 13s 8s 7 9 mph 1011.4mb 50f 50f
7:40am  -   -   -  4 9 mph 1011.4mb 50f 50f
7:30am  -   -   -  4 9 mph 1011.4mb 50f 50f
7:20am  -   -   -  4 7 mph 1011.5mb 50f 50f
7:10am  -   -   -  7 9 mph 1011.5mb 50f 50f
7:00am  -   -   -  7 9 mph 1011.5mb 50f 50f
6:50am 5ft 13s 8s 7 11 mph 1011.5mb 50f 50f
6:40am  -   -   -  7 9 mph 1011.5mb 50f 50f
6:30am  -   -   -  7 9 mph 1011.5mb 50f 50f
6:20am  -   -   -  7 9 mph 1011.6mb 51f 50f
6:10am  -   -   -  4 9 mph 1011.6mb 50f 50f
6:00am  -   -   -  4 7 mph 1011.5mb 51f -
5:50am 5ft 14s 8s 4 9 mph 1011.6mb 50f 50f
5:40am  -   -   -  2 7 mph 1011.8mb 51f 50f
5:30am  -   -   -  4 4 mph 1011.8mb 51f 50f
5:20am  -   -   -  2 4 mph 1011.9mb 50f 50f
5:10am  -   -   -  2 4 mph 1012mb 50f 50f
5:00am  -   -   -  2 4 mph 1012mb 51f 50f
4:50am 4.5ft 13s 8s  -  2 mph 1012mb 50f 50f
4:40am 4.5ft  -  8s  -  2 mph 1012mb 50f 50f
4:30am  -   -   -  2 4 mph 1012.3mb 50f 50f
4:20am  -   -   -  4 7 mph 1012.4mb 50f 50f
4:10am  -   -   -  4 7 mph 1012.4mb 51f 50f
4:00am  -   -   -  4 7 mph 1012.5mb 51f 50f
3:50am 5ft 11s 9s 4 7 mph 1012.5mb 51f 50f
3:40am 5ft  -  9s 4 9 mph 1012.5mb 51f 50f
3:30am  -   -   -  4 9 mph 1012.6mb 51f 51f
3:20am  -   -   -  4 7 mph 1012.6mb 51f 51f
3:10am  -   -   -  4 7 mph 1012.6mb 51f 51f
3:00am  -   -   -  2 4 mph 1012.9mb - 51f
2:50am 4.5ft 13s 9s 2 7 mph 1013mb 51f 51f
2:40am 4.5ft  -  9s 4 7 mph 1013mb 51f 51f
2:30am  -   -   -  4 7 mph 1013mb 51f 51f
2:20am  -   -   -  7 9 mph 1013mb 51f 51f
2:10am  -   -   -  4 7 mph 1013mb 50f 51f
2:00am  -   -   -  2 4 mph 1013.1mb 50f 51f
1:50am 4.5ft 14s 9s 4 7 mph 1013.1mb 50f 51f
1:40am 4.5ft  -  9s 7 9 mph 1013.3mb 50f 51f
1:30am  -   -   -  4 7 mph 1013.3mb 50f 51f
1:20am  -   -   -  4 7 mph 1013.3mb 50f 51f
1:10am  -   -   -  4 7 mph 1013.4mb 50f 51f
1:00am  -   -   -  4 7 mph 1013.5mb 50f 51f
12:50am 4.5ft 14s 8s 4 7 mph 1013.5mb 50f 51f
12:40am 4.5ft  -  8s 4 7 mph 1013.6mb 50f 51f
12:30am  -   -   -  2 4 mph 1013.8mb 51f 51f
12:20am  -   -   -  2 7 mph 1013.8mb 50f 51f
12:10am  -   -   -  4 7 mph 1013.9mb 50f 51f
12:00am  -   -   -  4 7 mph 1013.9mb 51f 51f
Tue 05/23 11:50pm 5ft 14s 9s 4 7 mph 1013.9mb 51f 51f
11:40pm  -   -   -  4 7 mph 1014mb 51f 51f
11:30pm  -   -   -  4 7 mph 1013.9mb 51f 51f
11:20pm  -   -   -  4 9 mph 1013.9mb 51f 51f
11:10pm  -   -   -  4 9 mph 1014mb 51f 51f
11:00pm  -   -   -  4 7 mph 1014mb 51f 51f
10:50pm 4.5ft 14s 9s 4 7 mph 1014mb 51f 51f
10:40pm  -   -   -  4 7 mph 1014mb 51f 51f
10:30pm  -   -   -  4 7 mph 1014mb 51f 51f
10:20pm  -   -   -  4 7 mph 1014mb 51f 51f
10:10pm  -   -   -  2 7 mph 1013.9mb 51f 52f
10:00pm  -   -   -  2 4 mph 1013.9mb 51f 52f
9:50pm 4.5ft 14s 9s 2 2 mph 1013.9mb 52f 52f
9:40pm  -   -   -  2 4 mph 1013.9mb 51f 52f
9:30pm  -   -   -  2 4 mph 1013.9mb 51f 52f
9:20pm  -   -   -  4 4 mph 1013.9mb 52f 52f
9:10pm  -   -   -  2 4 mph 1014mb 52f 52f
9:00pm  -   -   -  4 7 mph 1014mb 52f 52f
8:50pm 4.5ft 15s 9s 4 7 mph 1014mb 51f 52f
8:40pm  -   -   -  2 4 mph 1014mb 51f 52f
8:30pm  -   -   -  4 7 mph 1014.1mb 51f 52f
8:20pm  -   -   -  4 7 mph 1014.3mb 51f 52f
8:10pm  -   -   -  4 9 mph 1014.4mb 50f 52f
8:00pm  -   -   -  4 9 mph 1014.5mb - 52f
7:50pm 4.5ft 15s 9s 4 7 mph 1014.4mb 50f 52f
7:40pm 4.5ft  -  9s 2 4 mph 1014.5mb 50f 52f
7:30pm  -   -   -  2 7 mph 1014.5mb 50f 52f
7:20pm  -   -   -  4 7 mph 1014.4mb 50f 52f
7:10pm  -   -   -  4 7 mph 1014.5mb 50f 52f
7:00pm  -   -   -  2 4 mph 1014.5mb 50f 52f
6:50pm 4.5ft 15s 9s 4 7 mph 1014.6mb 50f 52f
6:40pm 4.5ft  -  9s 4 7 mph 1014.6mb 50f 52f
6:30pm  -   -   -  4 7 mph 1014.6mb 50f 52f
6:20pm  -   -   -  4 7 mph 1014.9mb 50f 52f
6:10pm  -   -   -  4 7 mph 1015mb 50f 52f
6:00pm  -   -   -  4 7 mph 1015mb 50f 52f
5:50pm 4ft 15s 8s 4 7 mph 1015.1mb - 52f
5:40pm 4ft  -  8s 4 7 mph 1015.1mb 50f 52f
5:30pm  -   -   -  4 7 mph 1015.1mb 50f 52f
5:20pm  -   -   -  4 4 mph 1015.1mb 50f 52f
5:10pm  -   -   -  4 7 mph 1015.1mb 50f 52f
5:00pm  -   -   -  2 4 mph 1015.4mb 50f -
4:50pm 4ft 15s 8s 4 9 mph 1015.3mb 50f 52f
4:40pm  -   -   -  4 7 mph 1015.5mb 50f 52f
4:30pm  -   -   -  7 9 mph 1015.5mb 50f 52f
4:20pm  -   -   -  4 9 mph 1015.5mb 50f 52f
4:10pm  -   -   -  7 9 mph 1015.5mb 50f 52f
4:00pm  -   -   -  4 9 mph 1015.6mb 51f 51f
3:50pm 4ft 15s 8s 2 7 mph 1015.8mb 51f 51f
3:40pm 4ft  -  8s 4 7 mph 1015.8mb 51f 51f
3:30pm  -   -   -  7 7 mph 1016mb 50f 51f
3:20pm  -   -   -  4 7 mph 1015.9mb 50f 51f
3:10pm  -   -   -  4 7 mph 1016mb 50f 51f
3:00pm  -   -   -  7 9 mph 1015.9mb 50f 51f
2:50pm 5ft 15s 9s 4 7 mph 1015.8mb 50f 51f
2:40pm  -   -   -  7 9 mph 1015.8mb 50f 51f
2:30pm  -   -   -  7 9 mph 1015.8mb - 50f
2:20pm  -   -   -  7 11 mph 1015.8mb 51f 50f
2:10pm  -   -   -  7 9 mph 1015.6mb 50f 50f
2:00pm  -   -   -  4 7 mph 1015.5mb 50f 50f
1:50pm 3.5ft 15s 8s 4 7 mph 1015.6mb 50f 49f
1:40pm 3.5ft  -  8s 4 7 mph 1015.6mb 50f 49f
1:30pm  -   -   -  2 4 mph 1015.6mb 50f 49f
1:20pm  -   -   -  2 4 mph 1015.6mb 50f 49f
1:10pm  -   -   -  2 4 mph 1015.6mb 51f 49f
1:00pm  -   -   -  2 7 mph 1015.6mb 50f 49f
12:50pm 4.5ft 15s 8s  -  4 mph 1015.8mb 50f 49f
12:40pm  -   -   -  2 4 mph 1015.9mb 50f 49f
12:30pm  -   -   -  2 4 mph 1016mb 50f 49f
12:20pm  -   -   -  2 4 mph 1016mb 50f 49f
12:10pm  -   -   -   -  4 mph 1016.1mb 50f 49f
12:00pm  -   -   -  2 4 mph 1016mb 50f 49f
11:50am 4ft 15s 8s 4 7 mph 1016.1mb 50f 49f
11:40am 4ft  -  8s 4 7 mph 1016.3mb 50f 49f
11:30am  -   -   -  2 4 mph 1016.3mb 50f 49f
11:20am  -   -   -  4 7 mph 1016.1mb 50f 49f
11:10am  -   -   -  4 7 mph 1016.4mb 50f 49f
11:00am  -   -   -  4 7 mph 1016.4mb 50f 49f
10:50am 3.5ft 15s 8s 4 9 mph 1016.3mb 50f 49f
10:40am 3.5ft  -  8s 7 9 mph 1016.3mb 50f 49f
10:30am  -   -   -  7 9 mph 1016.1mb 50f 49f
10:20am  -   -   -  9 11 mph 1016mb 50f 49f
10:10am  -   -   -  9 11 mph 1016mb 50f 49f
10:00am  -   -   -  7 9 mph 1016mb 50f 49f
9:50am 3.5ft 15s 8s 7 9 mph 1016mb 50f 49f
9:40am 3.5ft  -  8s 7 11 mph 1016mb 50f 49f
9:30am  -   -   -  7 9 mph 1015.9mb 50f 49f
9:20am  -   -   -  4 9 mph 1016mb 50f 49f
9:10am  -   -   -  7 9 mph 1015.9mb 50f 48f
9:00am  -   -   -  7 9 mph 1015.8mb 50f 48f
8:50am 4ft 15s 9s 7 9 mph 1015.8mb 50f 48f
8:40am 4ft  -  9s 7 9 mph 1015.6mb 50f 48f
8:30am  -   -   -  4 9 mph 1015.5mb 50f 48f
8:20am  -   -   -  4 9 mph 1015.5mb 50f 47f
8:10am  -   -   -  4 7 mph 1015.5mb 50f 47f
8:00am  -   -   -  2 4 mph 1015.5mb 50f 47f
7:50am 3.5ft 16s 8s 4 7 mph 1015.5mb 50f 47f
7:40am 3.5ft  -  8s 4 7 mph 1015.5mb 50f 47f
7:30am  -   -   -  4 9 mph 1015.4mb - -
7:20am  -   -   -  4 9 mph 1015.5mb 50f 47f
7:10am  -   -   -  7 7 mph 1015.4mb 50f 47f
7:00am  -   -   -  4 9 mph 1015.3mb 50f 47f
6:50am 3.5ft 16s 8s 7 9 mph 1015.3mb 50f 47f
6:40am  -   -   -  7 9 mph 1015.1mb 50f 48f
6:30am  -   -   -  7 9 mph 1015.1mb 50f 48f
6:20am  -   -   -  4 9 mph 1015.1mb 50f 48f
6:10am  -   -   -  2 4 mph 1015mb 50f 48f
6:00am  -   -   -  4 7 mph 1015mb 50f 48f
5:50am 3.5ft 16s 8s 4 4 mph 1015mb 50f 48f
5:40am  -   -   -  7 9 mph 1015.1mb 50f 48f
5:30am  -   -   -  7 11 mph 1015mb 50f 48f
5:20am  -   -   -  7 9 mph 1015mb 50f 47f
5:10am  -   -   -  4 9 mph 1014.9mb 50f 47f
5:00am  -   -   -  4 7 mph 1015mb 50f 47f
4:50am 3.5ft 16s 8s 4 4 mph 1015mb 50f 47f
4:40am 3.5ft  -  8s 7 7 mph 1015mb 50f 47f
4:30am  -   -   -  4 9 mph 1015mb 50f 47f
4:20am  -   -   -  4 9 mph 1015.1mb 50f 46f
4:10am  -   -   -  2 7 mph 1015mb 50f 46f
4:00am  -   -   -  4 7 mph 1015mb 50f 46f
3:50am 4ft 15s 8s 4 7 mph 1015mb 50f 46f
3:40am 4ft  -  8s 4 7 mph 1015mb 50f 47f
3:30am  -   -   -  4 7 mph 1015mb 50f 47f
3:20am  -   -   -  2 7 mph 1014.9mb 50f 47f
3:10am  -   -   -  4 7 mph 1015mb - 47f
3:00am  -   -   -  7 9 mph 1015.2mb - 47f
2:50am 4ft 16s 8s 4 7 mph 1014.9mb 50f 47f
2:40am 4ft  -  8s 4 9 mph 1015mb 50f 47f
2:30am  -   -   -  4 7 mph 1015mb 50f 47f
2:20am  -   -   -  4 7 mph 1015.1mb 50f 47f
2:10am  -   -   -  4 9 mph 1015mb 50f 47f
2:00am  -   -   -  7 9 mph 1015.1mb 50f 47f
1:50am 3.5ft 9s 7s 4 9 mph 1015.1mb 50f 47f
1:40am 3.5ft  -  7s 4 7 mph 1015.1mb 50f 47f
1:30am  -   -   -  2 4 mph 1015mb 50f -
1:20am  -   -   -  2 4 mph 1015.1mb 50f 47f
1:10am  -   -   -  4 7 mph 1015.3mb 50f 47f
1:00am  -   -   -  2 7 mph 1015.3mb 51f 47f
12:50am 4ft 16s 8s 2 4 mph 1015.1mb 51f 47f
12:40am  -   -   -  2 2 mph 1015.1mb 50f 47f
12:30am  -   -   -   -  2 mph 1015.3mb 50f 47f
12:20am  -   -   -   -  2 mph 1015.4mb 50f 47f
12:10am  -   -   -   -  2 mph 1015.1mb 50f -
12:00am  -   -   -   -  2 mph 1015.1mb 50f 47f
Mon 05/22 11:50pm 4ft 16s 8s 2 2 mph 1015.1mb 51f 48f
11:40pm  -   -   -  2 4 mph 1015mb 51f 48f
11:30pm  -   -   -   -  2 mph 1015.1mb 51f 48f
11:20pm  -   -   -  2 4 mph 1015.3mb 51f 48f
11:10pm  -   -   -  2 2 mph 1015.1mb 51f 48f
11:00pm  -   -   -   -  2 mph 1015.3mb 51f 48f
10:50pm 4ft 10s 8s  -  2 mph 1015.4mb 51f 48f
10:40pm 4ft  -  8s  -  4 mph 1015.4mb 51f 48f
10:30pm  -   -   -  2 4 mph 1015.4mb 51f 48f
10:20pm  -   -   -   -  2 mph 1015.4mb 51f 48f
10:10pm  -   -   -   -  2 mph 1015.4mb 51f 48f
10:00pm  -   -   -   -  2 mph 1015.5mb 51f 48f
9:50pm 3.5ft 10s 7s 2 4 mph 1015.5mb 51f 48f
9:40pm 3.5ft  -  7s 2 4 mph 1015.5mb 51f 49f
9:30pm  -   -   -  2 4 mph 1015.3mb 51f 49f
9:20pm  -   -   -  2 4 mph 1015.4mb 51f 49f
9:10pm  -   -   -  2 4 mph 1015.3mb 51f 49f
9:00pm  -   -   -  2 4 mph 1015.1mb 51f 49f
8:50pm 4ft 9s 7s 2 4 mph 1015.1mb 51f 49f
8:40pm  -   -   -  2 4 mph 1015mb 51f 49f
8:30pm  -   -   -  2 4 mph 1015mb 51f 49f
8:20pm  -   -   -   -  2 mph 1015mb 51f 49f
8:10pm  -   -   -   -  2 mph 1015mb 51f 49f
8:00pm  -   -   -   -  2 mph 1014.9mb 51f 49f
7:50pm 4ft 16s 7s 2 2 mph 1014.9mb - 49f
7:40pm 4ft  -  7s  -  2 mph 1014.8mb 51f 49f
7:30pm  -   -   -  2 4 mph 1014.6mb 51f 49f
7:20pm  -   -   -  2 4 mph 1014.6mb 51f 50f
7:10pm  -   -   -  2 4 mph 1014.5mb 51f 50f
7:00pm  -   -   -  2 4 mph 1014.8mb 51f 50f
6:50pm 4.5ft 10s 7s  -  2 mph 1014.6mb 51f 50f
6:40pm  -   -   -   -  2 mph 1014.8mb 51f 50f
6:30pm  -   -   -  2 7 mph 1015mb 51f 50f
6:20pm  -   -   -  2 4 mph 1015mb 52f 50f
6:10pm  -   -   -   -  4 mph 1015mb - 50f
6:00pm  -   -   -  2 4 mph 1015mb 52f 50f
5:50pm 4ft 11s 7s 2 4 mph 1015mb 51f 51f
5:40pm  -   -   -  4 7 mph 1015mb 50f 51f
5:30pm  -   -   -  2 4 mph 1015.1mb 50f 51f
5:20pm  -   -   -  2 4 mph 1015.1mb 50f 51f
5:10pm  -   -   -  2 4 mph 1015.1mb 50f 51f
5:00pm  -   -   -  2 7 mph 1015.3mb 50f -
4:50pm 4.5ft 8s 7s 4 4 mph 1015.3mb 50f 51f
4:40pm 4.5ft  -  7s 2 7 mph 1015.3mb 50f 51f
4:30pm  -   -   -  7 7 mph 1015.3mb 50f 51f
4:20pm  -   -   -  2 7 mph 1015.5mb 50f 51f
4:10pm  -   -   -  2 4 mph 1015.5mb 50f 51f
4:00pm  -   -   -  2 4 mph 1015.6mb 49f 51f
3:50pm 4ft 16s 6s 2 4 mph 1015.6mb 49f 51f
3:40pm 4ft  -  6s  -  2 mph 1015.8mb 50f 51f
3:30pm  -   -   -  2 4 mph 1015.9mb 49f 51f
3:20pm  -   -   -  4 7 mph 1015.9mb 50f 51f
3:10pm  -   -   -  4 7 mph 1016mb 50f 51f
3:00pm  -   -   -  4 7 mph 1016mb 50f 51f
2:50pm 4.5ft 7s 6s 4 4 mph 1016mb 50f 51f
2:40pm  -   -   -  4 4 mph 1016mb 50f 51f
2:30pm  -   -   -  4 7 mph 1016mb 50f 51f
2:20pm  -   -   -  4 7 mph 1016mb 50f 51f
2:10pm  -   -   -  4 7 mph 1016mb 50f 51f
2:00pm  -   -   -  4 9 mph 1016mb 50f 51f
1:50pm 4.5ft 10s 7s 7 9 mph 1016mb 50f 51f
1:40pm 4.5ft  -  7s 4 7 mph 1016mb 50f 51f
1:30pm  -   -   -  4 7 mph 1016mb 50f 51f
1:20pm  -   -   -  4 7 mph 1016mb 50f 51f
1:10pm  -   -   -  4 7 mph 1016mb 50f 51f
1:00pm  -   -   -  4 7 mph 1016mb 50f 51f
12:50pm 4.5ft 7s 6s 4 7 mph 1016mb 50f 50f
12:40pm  -   -   -  2 4 mph 1016mb 50f 50f
12:30pm  -   -   -  2 4 mph 1016.1mb 50f 50f
12:20pm  -   -   -  4 7 mph 1016.3mb 50f 50f
12:10pm  -   -   -  4 7 mph 1016.3mb 50f 50f
12:00pm  -   -   -  4 7 mph 1016.3mb 50f 50f
11:50am 4.5ft 7s 6s 4 7 mph 1016.3mb 50f 50f
11:40am  -   -   -  4 7 mph 1016.3mb 50f 50f
11:30am  -   -   -  4 7 mph 1016.1mb 50f 50f
11:20am  -   -   -  4 9 mph 1016.3mb 50f 50f
11:10am  -   -   -  4 7 mph 1016.3mb 49f 50f
11:00am  -   -   -  4 7 mph 1016.4mb 49f 50f
10:50am 4.5ft 14s 6s 4 7 mph 1016.3mb 49f 50f
10:40am 4.5ft  -  6s 4 7 mph 1016.1mb 49f 50f
10:30am  -   -   -  4 7 mph 1016.1mb 49f 50f
10:20am  -   -   -  4 7 mph 1016mb 49f 50f
10:10am  -   -   -  4 4 mph 1016mb 49f 50f
10:00am  -   -   -  2 4 mph 1016mb 49f 50f
9:50am 4ft 10s 7s 2 4 mph 1016mb 49f 50f
9:40am  -   -   -  4 7 mph 1016mb 49f 50f
9:30am  -   -   -  2 7 mph 1015.9mb 49f 50f
9:20am  -   -   -  2 4 mph 1015.8mb 49f 50f
9:10am  -   -   -  2 4 mph 1015.8mb 49f 50f
9:00am  -   -   -  2 4 mph 1015.8mb 49f 50f
8:50am 4ft 10s 7s 4 7 mph 1015.8mb 49f 50f
8:40am  -   -   -  4 7 mph 1015.6mb 49f 50f
8:30am  -   -   -  4 7 mph 1015.5mb 49f 50f
8:20am  -   -   -  4 7 mph 1015.5mb 49f 50f
8:10am  -   -   -  2 4 mph 1015.5mb 49f 50f
8:00am  -   -   -  2 4 mph 1015.4mb 49f 50f
7:50am 4ft 14s 6s 2 2 mph 1015.4mb 49f 50f
7:40am  -   -   -  2 4 mph 1015.1mb 49f 50f
7:30am  -   -   -  2 4 mph 1015.1mb 49f 50f
7:20am  -   -   -  2 4 mph 1015.1mb 49f 50f
7:10am  -   -   -   -  2 mph 1015.1mb 49f 50f
7:00am  -   -   -   -  2 mph 1015mb 49f 49f
6:50am 4.5ft 7s 6s  -  2 mph 1015mb 49f 49f
6:40am  -   -   -   -  2 mph 1015mb 49f 49f
6:30am  -   -   -   -  2 mph 1015mb 49f 49f
6:20am  -   -   -   -  2 mph 1014.8mb 49f 49f
6:10am  -   -   -  2 4 mph 1014.9mb 49f 49f
6:00am  -   -   -  4 7 mph 1014.8mb 49f 49f
5:50am 4.5ft 7s 6s 4 7 mph 1014.6mb 49f 49f
5:40am 4.5ft  -  6s 4 9 mph 1014.5mb 49f 50f
5:30am  -   -   -  4 7 mph 1014.5mb 49f 50f
5:20am  -   -   -  2 4 mph 1014.6mb 49f 50f
5:10am  -   -   -  2 4 mph 1014.5mb 49f 50f
5:00am  -   -   -  2 4 mph 1014.5mb 49f 50f
4:50am 4.5ft 8s 6s 2 7 mph 1014.6mb 49f 50f
4:40am 4.5ft  -  6s 2 4 mph 1014.5mb 49f 50f
4:30am  -   -   -  4 7 mph 1014.5mb 49f 50f
4:20am  -   -   -  4 4 mph 1014.5mb 49f 50f
4:10am  -   -   -  2 4 mph 1014.5mb 49f 50f
4:00am  -   -   -  2 4 mph 1014.5mb 49f 50f
3:50am 5ft 8s 6s 4 7 mph 1014.5mb 49f 50f
3:40am  -   -   -  4 9 mph 1014.5mb 49f 50f
3:30am  -   -   -  4 7 mph 1014.6mb 49f 50f
3:20am  -   -   -  4 9 mph 1014.6mb 49f 50f
3:10am  -   -   -  4 9 mph 1014.8mb 49f 50f
3:00am  -   -   -  4 7 mph 1014.9mb 49f 50f
2:50am 5ft 8s 6s 4 9 mph 1015mb 49f 50f
2:40am 5ft  -  6s 7 9 mph 1015mb 49f 50f
2:30am  -   -   -  9 11 mph 1015mb 49f 50f
2:20am  -   -   -  7 9 mph 1015mb 49f 50f
2:10am  -   -   -  7 9 mph 1015mb 49f 50f
2:00am  -   -   -  7 9 mph 1015mb 49f 50f
1:50am 5ft 8s 6s 9 11 mph 1015.1mb 49f 51f
1:40am 5ft  -  6s 9 11 mph 1015.1mb 49f 51f
1:30am  -   -   -  9 13 mph 1015.1mb 49f 51f
1:20am  -   -   -  9 13 mph 1015.1mb 49f 51f
1:10am  -   -   -  9 16 mph 1015.1mb 49f 51f
1:00am  -   -   -  11 13 mph 1015.3mb 49f 51f
12:50am 5ft 8s 6s 9 13 mph 1015.3mb 49f 51f
12:40am  -   -   -  11 16 mph 1015.3mb 49f 51f
12:30am  -   -   -  11 13 mph 1015.3mb 49f 51f
12:20am  -   -   -  11 16 mph 1015.4mb 49f 51f
12:10am  -   -   -  13 18 mph 1015.4mb 49f 51f
12:00am  -   -   -  11 16 mph 1015.5mb 49f 51f
Sun 05/21 11:50pm 5ft 8s 5s 13 16 mph 1015.4mb 49f 51f
11:40pm  -   -   -  11 16 mph 1015.4mb 49f 51f
11:30pm  -   -   -  13 16 mph 1015.4mb 49f 51f
11:20pm  -   -   -  16 20 mph 1015.4mb 49f 51f
11:10pm  -   -   -  16 18 mph 1015.4mb 49f 51f
11:00pm  -   -   -  16 20 mph 1015.4mb 49f 51f
10:50pm 5ft 9s 5s 16 22 mph 1015.5mb 49f 50f
10:40pm 5ft  -  5s 16 20 mph 1015.5mb 49f 50f
10:30pm  -   -   -  16 18 mph 1015.5mb 49f 50f
10:20pm  -   -   -  16 20 mph 1015.4mb 49f 50f
10:10pm  -   -   -  16 20 mph 1015.3mb 49f 50f
10:00pm  -   -   -  13 18 mph 1015.1mb 49f 50f
9:50pm 5.5ft 10s 5s 16 20 mph 1015mb 49f 50f
9:40pm  -   -   -  16 22 mph 1014.9mb 49f 50f
9:30pm  -   -   -  16 20 mph 1014.8mb 49f 50f
9:20pm  -   -   -  16 20 mph 1014.6mb 49f 50f
9:10pm  -   -   -  16 20 mph 1014.6mb 49f 50f
9:00pm  -   -   -  18 22 mph 1014.5mb 49f 50f
8:50pm 6ft 7s 5s 18 22 mph 1014.5mb 49f 50f
8:40pm  -   -   -  18 27 mph 1014.3mb 49f 50f
8:30pm  -   -   -  20 25 mph 1014.1mb 49f 50f
8:20pm  -   -   -  22 27 mph 1014.1mb 49f 50f
8:10pm  -   -   -  22 27 mph 1014mb 49f 50f
8:00pm  -   -   -  20 27 mph 1013.9mb 49f 50f
7:50pm 5.5ft 8s 5s 20 27 mph 1013.9mb 49f 50f
7:40pm 5.5ft  -  5s 20 25 mph 1013.9mb 49f 50f
7:30pm  -   -   -  20 27 mph 1013.8mb 49f 50f
7:20pm  -   -   -  20 25 mph 1013.8mb 49f 50f
7:10pm  -   -   -  20 25 mph 1013.9mb 49f 50f
7:00pm  -   -   -  18 25 mph 1013.9mb 49f 50f
6:50pm 6ft 8s 5s 20 25 mph 1013.9mb 49f 50f
6:40pm  -   -   -  20 25 mph 1013.9mb 49f 50f
6:30pm  -   -   -  22 27 mph 1013.9mb 49f 50f
6:20pm  -   -   -  20 25 mph 1013.9mb 49f 50f
6:10pm  -   -   -  22 27 mph 1013.9mb 49f 50f
6:00pm  -   -   -  22 27 mph 1014mb 49f 50f
5:50pm 5.5ft 9s 5s 20 25 mph 1014mb 49f 50f
5:40pm  -   -   -  20 27 mph 1014mb 49f 50f
5:30pm  -   -   -  20 25 mph 1014mb 49f 50f
5:20pm  -   -   -  20 25 mph 1014mb 49f 50f
5:10pm  -   -   -  20 27 mph 1014.1mb 49f 50f
5:00pm  -   -   -  22 27 mph 1014.3mb 49f 50f
4:50pm 6ft 8s 5s 20 27 mph 1014.3mb 49f 50f
4:40pm  -   -   -  20 27 mph 1014.4mb 49f 50f
4:30pm  -   -   -  22 27 mph 1014.4mb 49f 50f
4:20pm  -   -   -  22 29 mph 1014.5mb 49f 50f
4:10pm  -   -   -  22 27 mph 1014.6mb 49f 50f
4:00pm  -   -   -  22 27 mph 1014.5mb 49f 50f
3:50pm 5.5ft 8s 6s 22 25 mph 1014.6mb 49f 50f
3:40pm  -   -   -  20 25 mph 1014.6mb 49f 49f
3:30pm  -   -   -  20 25 mph 1014.8mb 49f 49f
3:20pm  -   -   -  18 22 mph 1014.8mb 49f 49f
3:10pm  -   -   -  20 25 mph 1015mb 49f 49f
3:00pm  -   -   -  20 25 mph 1015mb 49f 49f
2:50pm 6ft 8s 6s 18 22 mph 1015mb 49f 49f
2:40pm 6ft  -  6s 20 22 mph 1015mb 49f 49f
2:30pm  -   -   -  18 25 mph 1015mb 49f 49f
2:20pm  -   -   -  20 22 mph 1015mb 49f 49f
2:10pm  -   -   -  20 25 mph 1015.1mb 49f 49f
2:00pm  -   -   -  20 22 mph 1015.1mb 49f 49f
1:50pm 6ft 8s 6s 20 25 mph 1015.1mb 49f 49f
1:40pm 6ft  -  6s 18 22 mph 1015mb 49f 49f
1:30pm  -   -   -  18 22 mph 1015.1mb 49f 49f
1:20pm  -   -   -  18 22 mph 1015.1mb 49f 49f
1:10pm  -   -   -  18 20 mph 1015.1mb - 49f
1:00pm  -   -   -  16 22 mph 1015.3mb 49f 49f
12:50pm 6ft 8s 6s 18 22 mph 1015.1mb 49f 49f
12:40pm  -   -   -  18 22 mph 1015.3mb 49f 49f
12:30pm  -   -   -  16 20 mph 1015.4mb 49f 49f
12:20pm  -   -   -  18 22 mph 1015.4mb 49f 49f
12:10pm  -   -   -  18 22 mph 1015.3mb 49f 49f
12:00pm  -   -   -  18 22 mph 1015.3mb 49f 49f
11:50am 6ft 8s 6s 18 22 mph 1015.1mb 49f 49f
11:40am 6ft  -  6s 16 22 mph 1015.3mb 49f 49f
11:30am  -   -   -  18 22 mph 1015.1mb 49f 49f
11:20am  -   -   -  18 22 mph 1015mb 49f 49f
11:10am  -   -   -  16 20 mph 1015mb 49f 49f
11:00am  -   -   -  16 20 mph 1015mb 49f 48f
10:50am 6ft 8s 6s 16 20 mph 1015mb 49f 48f
10:40am 6ft  -  6s 16 20 mph 1015mb 49f 48f
10:30am  -   -   -  16 18 mph 1014.9mb 49f 48f
10:20am  -   -   -  16 18 mph 1014.9mb 49f 48f
10:10am  -   -   -  18 22 mph 1014.6mb 49f 48f
10:00am  -   -   -  18 22 mph 1014.6mb 49f 48f
9:50am 6.5ft 9s 6s 16 22 mph 1014.6mb 49f 48f
9:40am 6.5ft  -  6s 18 22 mph 1014.5mb 49f 48f
9:30am  -   -   -  18 22 mph 1014.5mb 49f 48f
9:20am  -   -   -  18 22 mph 1014.4mb 49f 48f
9:10am  -   -   -  18 22 mph 1014.3mb 49f 48f
9:00am  -   -   -  20 25 mph 1014.3mb 49f 48f
8:50am 6ft 8s 6s 18 22 mph 1014mb 49f 48f
8:40am  -   -   -  18 22 mph 1014mb - 48f
8:30am  -   -   -  18 22 mph 1014mb 49f 48f
8:20am  -   -   -  18 22 mph 1014mb 49f 48f
8:10am  -   -   -  18 20 mph 1014mb 49f 49f
8:00am  -   -   -  18 22 mph 1013.9mb 49f 49f
7:50am 6ft 8s 6s 16 20 mph 1013.9mb 49f 49f
7:40am 6ft  -  6s 20 25 mph 1013.8mb 49f 49f
7:30am  -   -   -  20 25 mph 1013.6mb 49f 49f
7:20am  -   -   -  20 25 mph 1013.6mb 49f 49f
7:10am  -   -   -  22 27 mph 1013.6mb 49f 49f
7:00am  -   -   -  20 27 mph 1013.5mb 49f 49f
6:50am 6ft 9s 6s 22 27 mph 1013.3mb 49f 49f
6:40am  -   -   -  22 27 mph 1013.1mb 49f 49f
6:30am 6ft  -  6s 20 27 mph 1013.1mb - 49f
6:20am  -   -   -  22 27 mph 1013mb 49f 49f
6:10am  -   -   -  22 29 mph 1013mb 49f -
6:00am  -   -   -  25 29 mph 1013mb 49f 49f
5:50am 5.5ft 9s 6s 22 29 mph 1013mb 49f 49f
5:40am 5.5ft  -  6s 22 29 mph 1013mb 49f 50f
5:30am  -   -   -  22 31 mph 1012.9mb 49f 50f
5:20am  -   -   -  22 27 mph 1012.6mb 49f 50f
5:10am  -   -   -  22 27 mph 1012.5mb 49f 50f
5:00am  -   -   -  20 27 mph 1012.5mb 49f 50f
4:50am 5.5ft 8s 5s 20 25 mph 1012.5mb 49f 50f
4:40am 5.5ft  -  5s 18 22 mph 1012.5mb 49f 50f
4:30am  -   -   -  18 22 mph 1012.4mb 49f 50f
4:20am  -   -   -  18 22 mph 1012.5mb 49f 50f
4:10am  -   -   -  20 25 mph 1012.5mb 49f 51f
4:00am  -   -   -  20 25 mph 1012.6mb 49f 51f
3:50am 6ft 8s 5s 20 25 mph 1012.6mb 49f 51f
3:40am 6ft  -  5s 20 25 mph 1012.6mb 49f 51f
3:30am  -   -   -  20 27 mph 1012.6mb 49f 51f
3:20am  -   -   -  20 27 mph 1012.8mb - 51f
3:10am  -   -   -  20 27 mph 1012.6mb 49f 51f
3:00am  -   -   -  20 27 mph 1012.8mb 49f 51f
2:50am 6ft 9s 6s 20 25 mph 1012.9mb 49f 51f
2:40am 6ft  -  6s 20 25 mph 1012.9mb 49f 51f
2:30am  -   -   -  18 25 mph 1012.9mb 49f 51f
2:20am  -   -   -  18 22 mph 1013mb 49f 51f
2:10am  -   -   -  20 22 mph 1013mb 49f 51f
2:00am  -   -   -  20 25 mph 1012.8mb 49f 51f
1:50am 6ft 9s 6s 20 27 mph 1012.8mb 49f 51f
1:40am 6ft  -  6s 20 27 mph 1012.8mb 49f 51f
1:30am  -   -   -  20 27 mph 1012.8mb 49f -
1:20am  -   -   -  20 25 mph 1012.6mb 49f 51f
1:10am  -   -   -  20 25 mph 1012.9mb 49f 51f
1:00am  -   -   -  20 22 mph 1012.9mb 49f 51f
12:50am 5.5ft 8s 6s 18 20 mph 1012.9mb 49f 51f
12:40am 5.5ft  -  6s 16 20 mph 1012.9mb 49f 51f
12:30am  -   -   -  13 18 mph 1013mb 49f 51f
12:20am  -   -   -  13 16 mph 1013mb 49f 51f
12:10am  -   -   -  13 16 mph 1013mb 49f 51f
12:00am  -   -   -  13 18 mph 1013mb 49f 52f
Sat 05/20 11:50pm 5.5ft 8s 6s 16 18 mph 1013mb 49f 52f
11:40pm 5.5ft  -  6s 16 20 mph 1013mb 49f 52f
11:30pm  -   -   -  18 22 mph 1013mb 49f 52f
11:20pm  -   -   -  18 22 mph 1013mb 49f 52f
11:10pm  -   -   -  16 20 mph 1013mb 49f 52f
11:00pm  -   -   -  16 20 mph 1013mb 49f 52f
10:50pm 5ft 8s 6s 16 20 mph 1013.1mb 49f 52f
10:40pm  -   -   -  16 18 mph 1013mb 49f 52f
10:30pm  -   -   -  13 16 mph 1013.1mb 49f 52f
10:20pm  -   -   -  11 16 mph 1013mb 49f 52f
10:10pm  -   -   -  13 16 mph 1013.1mb 49f 52f
10:00pm  -   -   -  11 16 mph 1013mb 49f 52f
9:50pm 5ft 9s 6s 11 16 mph 1013mb 49f 52f
9:40pm 5ft  -  6s 13 16 mph 1013mb 49f 53f
9:30pm  -   -   -  13 16 mph 1013mb 49f 53f
9:20pm  -   -   -  13 16 mph 1013mb 49f 53f
9:10pm  -   -   -  13 18 mph 1013mb 49f 53f
9:00pm  -   -   -  13 18 mph 1013mb 49f 53f
8:50pm 5.5ft 8s 7s 11 16 mph 1013mb 49f 53f
8:40pm 5.5ft  -  7s 11 13 mph 1013mb 49f 53f
8:30pm  -   -   -  11 13 mph 1013mb 49f 53f
8:20pm  -   -   -  13 16 mph 1013mb 49f 53f
8:10pm  -   -   -  13 16 mph 1012.9mb 49f 53f
8:00pm  -   -   -  11 16 mph 1013mb 49f 53f
7:50pm 5.5ft 9s 7s 11 16 mph 1013mb 49f 53f
7:40pm 5.5ft  -  7s 11 16 mph 1013mb 49f 53f
7:30pm  -   -   -  13 16 mph 1013mb 49f 53f
7:20pm  -   -   -  13 16 mph 1013mb 49f 53f
7:10pm  -   -   -  13 16 mph 1013.1mb 49f 53f
7:00pm  -   -   -  13 16 mph 1013.3mb 49f 53f
6:50pm 4.5ft 9s 6s 13 16 mph 1013.3mb 49f 52f
6:10pm  -   -   -  11 13 mph 1013.6mb 49f 52f
6:00pm  -   -   -  11 13 mph 1013.6mb 49f 52f
5:50pm 4.5ft 9s 7s 11 13 mph 1013.9mb 49f 52f
5:40pm 4.5ft  -  7s 11 13 mph 1013.9mb 49f 52f